| time (UTC) | temp F | wind direction | speed MPH | gust MPH | rain 1hr in | rain 24hr in | rain mn in | humidity % | barometer mb |
| 20260503222045 | 80 | 207 | 1.0 | 7.0 | 0.57 | 0.87 | 0.87 | 97 | 1014.1 |
| 20260503221553 | 80 | 0 | 1.0 | 7.0 | 0.85 | 0.87 | 0.87 | 97 | 1014.1 |
| 20260503221040 | 80 | 247 | 1.0 | 5.0 | 0.87 | 0.87 | 0.87 | 97 | 1014.1 |
| 20260503220540 | 80 | 174 | 1.0 | 4.0 | 0.87 | 0.87 | 0.87 | 96 | 1014.0 |
| 20260503220052 | 80 | 191 | 0.0 | 5.0 | 0.87 | 0.87 | 0.87 | 96 | 1014.1 |
| 20260503215540 | 80 | 196 | 2.0 | 6.0 | 0.87 | 0.87 | 0.87 | 96 | 1014.4 |
| 20260503215039 | 80 | 182 | 3.0 | 6.0 | 0.87 | 0.87 | 0.87 | 96 | 1014.6 |
| 20260503214549 | 80 | 222 | 3.0 | 6.0 | 0.86 | 0.86 | 0.86 | 95 | 1014.6 |
| 20260503214040 | 80 | 225 | 1.0 | 4.0 | 0.86 | 0.86 | 0.86 | 95 | 1014.5 |
| 20260503213543 | 80 | 0 | 0.0 | 8.0 | 0.79 | 0.79 | 0.79 | 94 | 1014.7 |
| 20260503213052 | 80 | 272 | 2.0 | 8.0 | 0.68 | 0.68 | 0.68 | 93 | 1014.9 |
| 20260503212540 | 81 | 259 | 2.0 | 8.0 | 0.55 | 0.55 | 0.55 | 91 | 1015.0 |
| 20260503212037 | 83 | 275 | 3.0 | 14.0 | 0.26 | 0.26 | 0.26 | 90 | 1015.2 |
| 20260503211549 | 84 | 53 | 1.0 | 14.0 | 0.02 | 0.02 | 0.02 | 89 | 1015.0 |
| 20260503211037 | 84 | 325 | 6.0 | 14.0 | 0.00 | 0.00 | 0.00 | 88 | 1014.9 |
| 20260503210540 | 85 | 248 | 3.0 | 10.0 | 0.00 | 0.00 | 0.00 | 86 | 1014.7 |
| 20260503210047 | 85 | 284 | 4.0 | 10.0 | 0.00 | 0.00 | 0.00 | 87 | 1014.7 |
| 20260503205540 | 85 | 225 | 6.0 | 10.0 | 0.00 | 0.00 | 0.00 | 86 | 1014.9 |
| 20260503205040 | 85 | 247 | 4.0 | 12.0 | 0.00 | 0.00 | 0.00 | 86 | 1014.7 |
| 20260503204550 | 85 | 284 | 6.0 | 12.0 | 0.00 | 0.00 | 0.00 | 86 | 1014.6 |
| 20260503204040 | 85 | 309 | 7.0 | 12.0 | 0.00 | 0.00 | 0.00 | 86 | 1014.9 |
| 20260503203543 | 85 | 264 | 6.0 | 10.0 | 0.00 | 0.00 | 0.00 | 86 | 1015.0 |
| 20260503203047 | 85 | 309 | 3.0 | 11.0 | 0.00 | 0.00 | 0.00 | 86 | 1015.0 |
| 20260503202538 | 85 | 271 | 7.0 | 15.0 | 0.00 | 0.00 | 0.00 | 86 | 1015.0 |
| 20260503202039 | 85 | 295 | 7.0 | 15.0 | 0.00 | 0.00 | 0.00 | 86 | 1015.1 |
| 20260503201548 | 85 | 277 | 6.0 | 13.0 | 0.00 | 0.00 | 0.00 | 86 | 1015.2 |
| 20260503201044 | 85 | 292 | 5.0 | 14.0 | 0.00 | 0.00 | 0.00 | 86 | 1015.2 |
| 20260503200537 | 85 | 288 | 8.0 | 14.0 | 0.00 | 0.00 | 0.00 | 86 | 1015.2 |
| 20260503200056 | 85 | 300 | 4.0 | 15.0 | 0.00 | 0.00 | 0.00 | 86 | 1015.2 |
| 20260503195540 | 85 | 270 | 6.0 | 15.0 | 0.00 | 0.00 | 0.00 | 86 | 1015.3 |
| 20260503195040 | 85 | 311 | 7.0 | 12.0 | 0.00 | 0.00 | 0.00 | 86 | 1015.3 |
| 20260503194549 | 85 | 272 | 7.0 | 12.0 | 0.00 | 0.00 | 0.00 | 86 | 1015.5 |
| 20260503194041 | 85 | 286 | 9.0 | 12.0 | 0.00 | 0.00 | 0.00 | 86 | 1015.6 |
| 20260503193540 | 85 | 276 | 4.0 | 13.0 | 0.00 | 0.00 | 0.00 | 86 | 1015.6 |
| 20260503193057 | 85 | 290 | 8.0 | 13.0 | 0.00 | 0.00 | 0.00 | 86 | 1015.7 |
| 20260503192540 | 85 | 279 | 6.0 | 14.0 | 0.00 | 0.00 | 0.00 | 86 | 1015.8 |
| 20260503192042 | 85 | 296 | 7.0 | 18.0 | 0.00 | 0.00 | 0.00 | 86 | 1015.9 |
| 20260503191549 | 86 | 290 | 9.0 | 18.0 | 0.00 | 0.00 | 0.00 | 86 | 1015.9 |
| 20260503191041 | 86 | 269 | 7.0 | 16.0 | 0.00 | 0.00 | 0.00 | 85 | 1015.9 |
| 20260503190540 | 86 | 296 | 10.0 | 16.0 | 0.00 | 0.00 | 0.00 | 85 | 1016.0 |
| 20260503190052 | 86 | 272 | 7.0 | 17.0 | 0.00 | 0.00 | 0.00 | 85 | 1016.0 |
| 20260503185540 | 86 | 264 | 9.0 | 17.0 | 0.00 | 0.00 | 0.00 | 85 | 1016.1 |
| 20260503185040 | 86 | 290 | 7.0 | 15.0 | 0.00 | 0.00 | 0.00 | 84 | 1016.3 |
| 20260503184544 | 87 | 255 | 8.0 | 14.0 | 0.00 | 0.00 | 0.00 | 83 | 1016.2 |
| 20260503184042 | 87 | 277 | 6.0 | 14.0 | 0.00 | 0.00 | 0.00 | 84 | 1016.2 |
| 20260503183539 | 86 | 275 | 8.0 | 15.0 | 0.00 | 0.00 | 0.00 | 84 | 1016.4 |
| 20260503183107 | 86 | 262 | 7.0 | 16.0 | 0.00 | 0.00 | 0.00 | 85 | 1016.5 |
| 20260503182536 | 86 | 285 | 8.0 | 16.0 | 0.00 | 0.00 | 0.00 | 84 | 1016.5 |
| 20260503182039 | 86 | 277 | 9.0 | 16.0 | 0.00 | 0.00 | 0.00 | 84 | 1016.6 |
| 20260503181614 | 86 | 272 | 5.0 | 16.0 | 0.00 | 0.00 | 0.00 | 85 | 1016.7 |
| 20260503181038 | 85 | 319 | 7.0 | 16.0 | 0.00 | 0.00 | 0.00 | 85 | 1016.8 |
| 20260503180541 | 85 | 286 | 10.0 | 16.0 | 0.00 | 0.00 | 0.00 | 86 | 1016.9 |
| 20260503180052 | 84 | 261 | 6.0 | 13.0 | 0.00 | 0.00 | 0.00 | 86 | 1016.9 |
| 20260503175540 | 85 | 277 | 6.0 | 13.0 | 0.00 | 0.00 | 0.00 | 86 | 1017.0 |
| 20260503175043 | 85 | 257 | 5.0 | 13.0 | 0.00 | 0.00 | 0.00 | 86 | 1017.1 |
| 20260503174553 | 84 | 281 | 7.0 | 13.0 | 0.00 | 0.00 | 0.00 | 86 | 1017.1 |
| 20260503174039 | 84 | 292 | 8.0 | 16.0 | 0.00 | 0.00 | 0.00 | 86 | 1017.2 |
| 20260503173540 | 84 | 300 | 9.0 | 17.0 | 0.00 | 0.00 | 0.00 | 86 | 1017.3 |
| 20260503173054 | 84 | 273 | 9.0 | 17.0 | 0.00 | 0.00 | 0.00 | 86 | 1017.3 |
| 20260503172543 | 84 | 284 | 9.0 | 17.0 | 0.00 | 0.00 | 0.00 | 86 | 1017.4 |
| 20260503172043 | 85 | 286 | 10.0 | 15.0 | 0.00 | 0.00 | 0.00 | 85 | 1017.4 |
| 20260503171555 | 85 | 290 | 8.0 | 14.0 | 0.00 | 0.00 | 0.00 | 85 | 1017.4 |
| 20260503171037 | 85 | 268 | 7.0 | 16.0 | 0.00 | 0.00 | 0.00 | 86 | 1017.5 |
| 20260503170541 | 84 | 312 | 6.0 | 16.0 | 0.00 | 0.00 | 0.00 | 86 | 1017.4 |
| 20260503150540 | 81 | 271 | 11.0 | 18.0 | 0.00 | 0.00 | 0.00 | 89 | 1016.4 |
| 20260503131042 | 80 | 246 | 8.0 | 17.0 | 0.00 | 0.00 | 0.00 | 93 | 1015.5 |
| 20260503130539 | 80 | 239 | 7.0 | 14.0 | 0.00 | 0.00 | 0.00 | 93 | 1015.5 |
| 20260503110538 | 81 | 257 | 4.0 | 10.0 | 0.00 | 0.00 | 0.00 | 95 | 1014.1 |
| 20260503100104 | 82 | 201 | 2.0 | 8.0 | 0.00 | 0.00 | 0.00 | 94 | 1013.5 |
| 20260503081549 | 82 | 0 | 1.0 | 6.0 | 0.00 | 0.00 | 0.00 | 93 | 1014.1 |
| 20260503081037 | 82 | 317 | 3.0 | 7.0 | 0.00 | 0.00 | 0.00 | 93 | 1014.1 |
| 20260503080538 | 82 | 270 | 2.0 | 7.0 | 0.00 | 0.00 | 0.00 | 93 | 1014.1 |
| 20260503072541 | 82 | 327 | 6.0 | 13.0 | 0.00 | 0.00 | 0.00 | 93 | 1014.4 |
| 20260503072037 | 82 | 281 | 6.0 | 11.0 | 0.00 | 0.00 | 0.00 | 93 | 1014.5 |
| 20260503071558 | 82 | 351 | 5.0 | 11.0 | 0.00 | 0.00 | 0.00 | 93 | 1014.5 |
| 20260503071039 | 82 | 339 | 4.0 | 10.0 | 0.00 | 0.00 | 0.00 | 93 | 1014.6 |
| 20260503070537 | 82 | 327 | 4.0 | 11.0 | 0.00 | 0.00 | 0.00 | 92 | 1014.6 |
| 20260503070110 | 82 | 326 | 6.0 | 11.0 | 0.00 | 0.00 | 0.00 | 92 | 1014.8 |
| 20260503060108 | 83 | 330 | 6.0 | 10.0 | 0.00 | 0.00 | 0.00 | 92 | 1015.6 |
| 20260503055039 | 83 | 247 | 5.0 | 10.0 | 0.00 | 0.00 | 0.00 | 92 | 1015.6 |
| 20260503054549 | 83 | 344 | 5.0 | 9.0 | 0.00 | 0.00 | 0.00 | 92 | 1015.7 |
| 20260503054038 | 83 | 291 | 3.0 | 9.0 | 0.00 | 0.00 | 0.00 | 92 | 1015.8 |
| 20260503053537 | 83 | 36 | 4.0 | 9.0 | 0.00 | 0.00 | 0.00 | 92 | 1015.8 |
| 20260503053049 | 83 | 310 | 4.0 | 9.0 | 0.00 | 0.00 | 0.00 | 92 | 1015.9 |
| 20260503052538 | 83 | 300 | 3.0 | 8.0 | 0.00 | 0.00 | 0.00 | 92 | 1015.9 |
| 20260503052038 | 83 | 317 | 3.0 | 10.0 | 0.00 | 0.00 | 0.00 | 92 | 1016.0 |
| 20260503051553 | 83 | 34 | 3.0 | 10.0 | 0.00 | 0.00 | 0.00 | 92 | 1016.0 |
| 20260503051039 | 83 | 329 | 4.0 | 10.0 | 0.00 | 0.00 | 0.00 | 92 | 1016.0 |
| 20260503050537 | 83 | 258 | 5.0 | 11.0 | 0.00 | 0.00 | 0.00 | 91 | 1016.0 |
| 20260503050049 | 83 | 340 | 4.0 | 13.0 | 0.00 | 0.00 | 0.00 | 91 | 1016.1 |
| 20260503045539 | 83 | 333 | 7.0 | 13.0 | 0.00 | 0.00 | 0.00 | 91 | 1016.0 |
| 20260503045037 | 83 | 304 | 7.0 | 13.0 | 0.00 | 0.00 | 0.00 | 90 | 1015.9 |
| 20260503044548 | 83 | 321 | 6.0 | 14.0 | 0.00 | 0.00 | 0.00 | 90 | 1015.8 |
| 20260503044042 | 83 | 319 | 6.0 | 14.0 | 0.00 | 0.00 | 0.00 | 90 | 1015.9 |
| 20260503043540 | 84 | 278 | 8.0 | 13.0 | 0.00 | 0.00 | 0.00 | 90 | 1015.9 |
| 20260503043050 | 84 | 288 | 6.0 | 14.0 | 0.00 | 0.00 | 0.00 | 90 | 1015.9 |
| 20260503042538 | 84 | 277 | 7.0 | 14.0 | 0.00 | 0.00 | 0.00 | 90 | 1015.8 |
| 20260503042038 | 84 | 282 | 6.0 | 13.0 | 0.00 | 0.00 | 0.00 | 90 | 1015.7 |
| 20260503041545 | 84 | 296 | 8.0 | 13.0 | 0.00 | 0.00 | 0.00 | 90 | 1015.7 |
| 20260503041040 | 84 | 288 | 6.0 | 14.0 | 0.00 | 0.00 | 0.00 | 90 | 1015.6 |
| 20260503040537 | 84 | 307 | 7.0 | 14.0 | 0.00 | 0.00 | 0.00 | 90 | 1015.6 |
| 20260503040050 | 84 | 296 | 7.0 | 13.0 | 0.00 | 0.00 | 0.00 | 90 | 1015.6 |
| 20260503035539 | 84 | 305 | 8.0 | 13.0 | 0.00 | 0.00 | 0.00 | 90 | 1015.6 |
| 20260503035038 | 84 | 289 | 5.0 | 11.0 | 0.00 | 0.00 | 0.00 | 90 | 1015.5 |
| 20260503034601 | 84 | 9 | 5.0 | 12.0 | 0.00 | 0.00 | 0.00 | 90 | 1015.5 |
| 20260503034042 | 84 | 313 | 6.0 | 12.0 | 0.00 | 0.00 | 0.00 | 90 | 1015.4 |
| 20260503033541 | 84 | 282 | 6.0 | 13.0 | 0.00 | 0.00 | 0.00 | 90 | 1015.2 |
| 20260503033059 | 84 | 259 | 6.0 | 13.0 | 0.00 | 0.00 | 0.00 | 90 | 1015.1 |
| 20260503032543 | 84 | 290 | 7.0 | 12.0 | 0.00 | 0.00 | 0.00 | 90 | 1015.1 |
| 20260503032040 | 84 | 278 | 6.0 | 13.0 | 0.00 | 0.00 | 0.00 | 90 | 1015.0 |
| 20260503031556 | 84 | 311 | 3.0 | 13.0 | 0.00 | 0.00 | 0.00 | 90 | 1014.9 |
| 20260503031038 | 84 | 301 | 8.0 | 13.0 | 0.00 | 0.00 | 0.00 | 90 | 1014.6 |
| 20260503030539 | 84 | 334 | 6.0 | 12.0 | 0.00 | 0.00 | 0.00 | 90 | 1014.5 |
| 20260503030053 | 84 | 316 | 6.0 | 18.0 | 0.00 | 0.00 | 0.00 | 89 | 1014.4 |
| 20260503025537 | 84 | 310 | 6.0 | 18.0 | 0.00 | 0.00 | 0.00 | 89 | 1014.0 |
| 20260503025039 | 84 | 352 | 11.0 | 18.0 | 0.00 | 0.00 | 0.00 | 89 | 1013.7 |
| 20260503024553 | 84 | 300 | 8.0 | 15.0 | 0.00 | 0.00 | 0.00 | 89 | 1013.7 |
| 20260503024038 | 84 | 315 | 7.0 | 15.0 | 0.00 | 0.00 | 0.00 | 89 | 1013.8 |
| 20260503023541 | 84 | 294 | 7.0 | 17.0 | 0.00 | 0.00 | 0.00 | 89 | 1013.6 |
| 20260503023057 | 84 | 313 | 8.0 | 17.0 | 0.00 | 0.00 | 0.00 | 89 | 1013.5 |
| 20260503022537 | 84 | 336 | 7.0 | 17.0 | 0.00 | 0.00 | 0.00 | 89 | 1013.5 |
| 20260503022046 | 84 | 327 | 10.0 | 17.0 | 0.00 | 0.00 | 0.00 | 89 | 1013.3 |
| 20260503021554 | 84 | 278 | 7.0 | 16.0 | 0.00 | 0.00 | 0.00 | 89 | 1013.2 |
| 20260503021037 | 84 | 325 | 7.0 | 16.0 | 0.00 | 0.00 | 0.00 | 89 | 1013.0 |
| 20260503020537 | 84 | 335 | 10.0 | 16.0 | 0.00 | 0.00 | 0.00 | 89 | 1012.9 |
| 20260503020051 | 85 | 302 | 8.0 | 18.0 | 0.00 | 0.00 | 0.00 | 89 | 1012.7 |
| 20260503015540 | 85 | 315 | 11.0 | 18.0 | 0.00 | 0.00 | 0.00 | 89 | 1012.4 |
| 20260503015040 | 85 | 288 | 9.0 | 16.0 | 0.00 | 0.00 | 0.00 | 88 | 1012.2 |
| 20260503014548 | 85 | 293 | 9.0 | 14.0 | 0.00 | 0.00 | 0.00 | 88 | 1012.1 |
| 20260503014039 | 85 | 316 | 8.0 | 22.0 | 0.00 | 0.00 | 0.00 | 88 | 1011.8 |
| 20260503013540 | 85 | 304 | 10.0 | 22.0 | 0.00 | 0.00 | 0.00 | 87 | 1011.7 |
| 20260503013055 | 85 | 225 | 12.0 | 22.0 | 0.00 | 0.00 | 0.00 | 87 | 1011.8 |
| 20260503012541 | 85 | 290 | 10.0 | 18.0 | 0.00 | 0.00 | 0.00 | 87 | 1011.8 |
| 20260503012038 | 86 | 269 | 9.0 | 16.0 | 0.00 | 0.00 | 0.00 | 86 | 1011.8 |
| 20260503011603 | 86 | 318 | 7.0 | 18.0 | 0.00 | 0.00 | 0.00 | 86 | 1011.8 |
| 20260503011037 | 86 | 296 | 9.0 | 18.0 | 0.00 | 0.00 | 0.00 | 86 | 1011.8 |
| 20260503010539 | 86 | 332 | 9.0 | 18.0 | 0.00 | 0.00 | 0.00 | 86 | 1011.7 |
| 20260503010117 | 86 | 296 | 11.0 | 20.0 | 0.00 | 0.00 | 0.00 | 85 | 1011.5 |
| 20260503005539 | 86 | 329 | 10.0 | 22.0 | 0.00 | 0.00 | 0.00 | 85 | 1011.4 |
| 20260503005038 | 87 | 313 | 9.0 | 22.0 | 0.00 | 0.00 | 0.00 | 84 | 1011.3 |
| 20260503004546 | 87 | 315 | 12.0 | 22.0 | 0.00 | 0.00 | 0.00 | 83 | 1011.3 |
| 20260503004040 | 88 | 305 | 9.0 | 18.0 | 0.00 | 0.00 | 0.00 | 82 | 1011.1 |
| 20260503003539 | 88 | 287 | 10.0 | 18.0 | 0.00 | 0.00 | 0.00 | 81 | 1011.2 |
| 20260503003045 | 88 | 298 | 7.0 | 17.0 | 0.00 | 0.00 | 0.00 | 80 | 1011.0 |
| 20260503002539 | 88 | 266 | 9.0 | 17.0 | 0.00 | 0.00 | 0.00 | 79 | 1010.8 |
| 20260503002040 | 89 | 327 | 8.0 | 15.0 | 0.00 | 0.00 | 0.00 | 78 | 1010.9 |
| 20260503001548 | 89 | 323 | 7.0 | 17.0 | 0.00 | 0.00 | 0.00 | 78 | 1010.9 |
| 20260503001039 | 89 | 279 | 9.0 | 18.0 | 0.00 | 0.00 | 0.00 | 78 | 1010.8 |
| 20260503000539 | 89 | 289 | 11.0 | 18.0 | 0.00 | 0.00 | 0.00 | 77 | 1010.6 |
| 20260503000050 | 90 | 302 | 11.0 | 20.0 | 0.00 | 0.00 | 0.00 | 77 | 1010.7 |
| 20260502235539 | 90 | 300 | 8.0 | 20.0 | 0.00 | 0.00 | 0.00 | 76 | 1010.6 |
| 20260502235039 | 90 | 279 | 13.0 | 20.0 | 0.00 | 0.00 | 0.00 | 76 | 1010.4 |
| 20260502234548 | 90 | 298 | 12.0 | 23.0 | 0.00 | 0.00 | 0.00 | 76 | 1010.4 |
| 20260502234040 | 91 | 255 | 12.0 | 23.0 | 0.00 | 0.00 | 0.00 | 76 | 1010.3 |
| 20260502233540 | 91 | 331 | 15.0 | 23.0 | 0.00 | 0.00 | 0.00 | 76 | 1010.4 |
| 20260502233051 | 92 | 322 | 14.0 | 22.0 | 0.00 | 0.00 | 0.00 | 77 | 1010.3 |
| 20260502232540 | 92 | 335 | 13.0 | 21.0 | 0.00 | 0.00 | 0.00 | 76 | 1010.3 |
| 20260502232039 | 92 | 298 | 10.0 | 24.0 | 0.00 | 0.00 | 0.00 | 76 | 1010.2 |
| 20260502231550 | 93 | 296 | 15.0 | 24.0 | 0.00 | 0.00 | 0.00 | 75 | 1010.1 |
| 20260502231038 | 94 | 304 | 13.0 | 24.0 | 0.00 | 0.00 | 0.00 | 73 | 1010.1 |
| 20260502230540 | 95 | 317 | 11.0 | 24.0 | 0.00 | 0.00 | 0.00 | 70 | 1009.8 |
| 20260502230051 | 95 | 271 | 13.0 | 24.0 | 0.00 | 0.00 | 0.00 | 69 | 1009.7 |
| 20260502225538 | 96 | 293 | 11.0 | 20.0 | 0.00 | 0.00 | 0.00 | 67 | 1009.8 |
| 20260502225037 | 96 | 294 | 11.0 | 21.0 | 0.00 | 0.00 | 0.00 | 67 | 1009.8 |
| 20260502224553 | 96 | 315 | 11.0 | 21.0 | 0.00 | 0.00 | 0.00 | 66 | 1009.8 |
| 20260502224040 | 97 | 288 | 12.0 | 20.0 | 0.00 | 0.00 | 0.00 | 65 | 1009.7 |
| 20260502223540 | 97 | 275 | 9.0 | 19.0 | 0.00 | 0.00 | 0.00 | 65 | 1009.5 |
| 20260502223050 | 97 | 274 | 10.0 | 19.0 | 0.00 | 0.00 | 0.00 | 65 | 1009.5 |
| 20260502222542 | 97 | 325 | 10.0 | 19.0 | 0.00 | 0.00 | 0.00 | 65 | 1009.5 |